Terminal Aerodrome Forecast
Issued by NWS

Home | Current Version | Previous Version | Text Only | Print | Product List | Glossary On
Versions: 1 2 3 4 5 6 7 8 9 10 11 12 13 14 15 16 17 18
000
FTUS46 KMFR 202339
TAFRBG
TAF
KRBG 202339Z 2100/2124 17005KT 4SM RA BR BKN025 OVC050
     FM210400 18004KT 3SM RA BR OVC007
     FM211400 19002KT 3SM -RA BR OVC004
     FM212000 21006KT 5SM -RA BR BKN015 OVC025=

USA.gov is the U.S. government's official web portal to all federal, state and local government web resources and services.